createdAt,value
2022-12-25T00:01:14.025Z,3.00
2022-12-25T00:03:40.924Z,3.17
2022-12-25T00:06:08.106Z,3.13
2022-12-25T00:08:36.371Z,3.63
2022-12-25T00:11:06.594Z,3.33
2022-12-25T00:13:33.500Z,3.70
2022-12-25T00:16:00.351Z,4.55
2022-12-25T00:18:27.144Z,4.20
2022-12-25T00:21:02.311Z,3.35
2022-12-25T00:23:30.095Z,4.22
2022-12-25T00:25:56.947Z,3.63
2022-12-25T00:28:24.363Z,3.58
2022-12-25T00:30:51.725Z,3.80
2022-12-25T00:33:19.040Z,3.60
2022-12-25T00:35:56.647Z,5.20
2022-12-25T00:38:23.438Z,4.90
2022-12-25T00:40:50.244Z,6.43
2022-12-25T00:43:17.167Z,5.75
2022-12-25T00:45:43.967Z,5.47
2022-12-25T00:48:10.795Z,4.70
2022-12-25T00:50:40.351Z,5.15
2022-12-25T00:53:07.102Z,4.63
2022-12-25T00:55:33.845Z,4.10
2022-12-25T00:58:00.630Z,3.70
2022-12-25T01:00:27.389Z,3.33
2022-12-25T01:02:54.270Z,3.40
2022-12-25T01:05:21.055Z,3.20
2022-12-25T01:07:47.791Z,2.90
2022-12-25T01:10:23.737Z,3.38
2022-12-25T01:12:51.708Z,3.30
2022-12-25T01:15:19.272Z,3.70
2022-12-25T01:17:46.153Z,3.28
2022-12-25T01:20:14.696Z,3.28
2022-12-25T01:22:41.618Z,3.20
2022-12-25T01:25:09.169Z,2.80
2022-12-25T01:27:36.357Z,2.80
2022-12-25T01:30:03.359Z,3.15
2022-12-25T01:32:31.555Z,3.08
2022-12-25T01:34:58.357Z,3.28
2022-12-25T01:37:25.455Z,3.55
2022-12-25T01:39:52.308Z,2.88
2022-12-25T01:42:23.689Z,2.70
2022-12-25T01:44:50.594Z,3.30
2022-12-25T01:47:18.319Z,3.47
2022-12-25T01:49:49.697Z,3.70
2022-12-25T01:52:24.122Z,3.40
2022-12-25T01:55:01.800Z,3.00
2022-12-25T01:57:32.284Z,2.90
2022-12-25T02:00:00.090Z,3.20
2022-12-25T02:02:28.375Z,3.47
2022-12-25T02:05:04.653Z,3.22
2022-12-25T02:07:34.593Z,3.15
2022-12-25T02:10:01.425Z,3.45
2022-12-25T02:12:32.537Z,3.83
2022-12-25T02:15:45.248Z,3.88
2022-12-25T02:18:33.602Z,3.40
2022-12-25T02:21:33.955Z,3.60
2022-12-25T02:24:23.007Z,3.47
2022-12-25T02:27:15.882Z,3.60
2022-12-25T02:29:45.357Z,3.28
2022-12-25T02:32:31.012Z,3.53
2022-12-25T02:35:27.809Z,3.08
2022-12-25T02:38:03.596Z,2.55
2022-12-25T02:40:49.928Z,2.83
2022-12-25T02:43:49.438Z,2.47
2022-12-25T02:46:39.755Z,2.40
2022-12-25T02:49:37.658Z,2.30
2022-12-25T02:52:28.574Z,2.70
2022-12-25T02:55:20.443Z,2.42
2022-12-25T02:58:10.115Z,2.60
2022-12-25T03:01:06.904Z,2.65
2022-12-25T03:03:57.133Z,2.00
2022-12-25T03:06:44.732Z,2.47
2022-12-25T03:09:44.413Z,2.55
2022-12-25T03:12:29.588Z,2.53
2022-12-25T03:15:15.696Z,2.90
2022-12-25T03:17:42.754Z,2.50
2022-12-25T03:20:28.848Z,2.30
2022-12-25T03:23:15.356Z,2.10
2022-12-25T03:26:00.938Z,2.03
2022-12-25T03:28:27.675Z,1.80
2022-12-25T03:31:17.093Z,1.63
2022-12-25T03:34:06.994Z,2.15
2022-12-25T03:36:55.202Z,2.65
2022-12-25T03:40:24.005Z,2.42
2022-12-25T03:43:37.498Z,2.08
2022-12-25T03:46:27.141Z,3.67
2022-12-25T03:49:18.867Z,4.00
2022-12-25T03:52:05.996Z,2.45
2022-12-25T03:54:53.861Z,2.30
2022-12-25T03:57:38.989Z,2.20
2022-12-25T04:00:25.244Z,2.40
2022-12-25T04:03:11.367Z,2.60
2022-12-25T04:05:56.571Z,2.80
2022-12-25T04:08:42.079Z,2.70
2022-12-25T04:11:27.271Z,3.03
2022-12-25T04:14:12.865Z,2.55
2022-12-25T04:16:58.046Z,4.22
2022-12-25T04:19:44.476Z,2.50
2022-12-25T04:22:29.855Z,2.40
2022-12-25T04:25:15.151Z,2.60
2022-12-25T04:28:00.552Z,2.10
2022-12-25T04:30:45.772Z,2.58
2022-12-25T04:33:31.548Z,2.67
2022-12-25T04:36:11.666Z,2.10
2022-12-25T04:38:40.690Z,2.20
2022-12-25T04:41:11.982Z,1.80
2022-12-25T04:43:38.747Z,2.47
2022-12-25T04:46:06.239Z,2.50
2022-12-25T04:48:35.309Z,2.70
2022-12-25T04:51:17.873Z,2.50
2022-12-25T04:53:45.230Z,2.30
2022-12-25T04:56:12.499Z,2.03
2022-12-25T04:58:39.337Z,1.30
2022-12-25T05:01:06.218Z,1.40
2022-12-25T05:03:33.578Z,1.83
2022-12-25T05:06:01.342Z,1.73
2022-12-25T05:08:30.114Z,1.75
2022-12-25T05:10:56.896Z,1.40
2022-12-25T05:13:23.653Z,1.73
2022-12-25T05:15:51.357Z,1.80
2022-12-25T05:18:18.196Z,1.70
2022-12-25T05:20:54.795Z,1.90
2022-12-25T05:23:22.110Z,1.73
2022-12-25T05:25:49.060Z,1.88
2022-12-25T05:28:15.819Z,1.40
2022-12-25T05:30:42.604Z,1.60
2022-12-25T05:33:09.421Z,1.80
2022-12-25T05:35:38.159Z,1.50
2022-12-25T05:38:06.546Z,2.08
2022-12-25T05:40:34.311Z,1.70
2022-12-25T05:43:01.061Z,1.70
2022-12-25T05:45:27.798Z,1.77
2022-12-25T05:47:54.531Z,2.60
2022-12-25T05:50:21.348Z,1.92
2022-12-25T05:52:48.102Z,1.90
2022-12-25T05:55:14.979Z,1.90
2022-12-25T05:57:41.713Z,2.17
2022-12-25T06:00:09.033Z,2.10
2022-12-25T06:02:37.211Z,2.08
2022-12-25T06:05:04.943Z,1.73
2022-12-25T06:07:31.888Z,1.77
2022-12-25T06:09:58.745Z,2.05
2022-12-25T06:12:25.527Z,1.88
2022-12-25T06:14:52.272Z,2.10
2022-12-25T06:17:18.994Z,2.08
2022-12-25T06:19:45.764Z,2.22
2022-12-25T06:22:12.496Z,2.30
2022-12-25T06:24:39.477Z,2.40
2022-12-25T06:27:06.218Z,2.40
2022-12-25T06:29:32.959Z,2.30
2022-12-25T06:31:59.781Z,2.20
2022-12-25T06:34:27.057Z,1.80
2022-12-25T06:36:53.800Z,2.50
2022-12-25T06:39:25.401Z,2.00
2022-12-25T06:41:52.182Z,2.90
2022-12-25T06:44:18.903Z,2.85
2022-12-25T06:46:45.601Z,2.58
2022-12-25T06:49:12.319Z,2.50
2022-12-25T06:51:39.110Z,3.10
2022-12-25T06:54:06.397Z,2.80
2022-12-25T06:56:34.031Z,2.35
2022-12-25T06:59:06.479Z,2.40
2022-12-25T07:01:55.859Z,2.30
2022-12-25T07:04:32.083Z,4.63
2022-12-25T07:07:04.455Z,4.13
2022-12-25T07:09:35.587Z,4.25
2022-12-25T07:12:07.768Z,3.55
2022-12-25T07:14:34.652Z,3.75
2022-12-25T07:17:01.427Z,3.72
2022-12-25T07:19:28.260Z,5.93
2022-12-25T07:21:54.972Z,7.45
2022-12-25T07:24:22.982Z,6.03
2022-12-25T07:26:50.836Z,6.18
2022-12-25T07:29:19.506Z,5.07
2022-12-25T07:31:46.855Z,7.25
2022-12-25T07:34:13.575Z,8.13
2022-12-25T07:36:40.314Z,6.53
2022-12-25T07:39:07.007Z,4.15
2022-12-25T07:41:33.698Z,4.43
2022-12-25T07:44:00.476Z,5.00
2022-12-25T07:46:28.263Z,4.05
2022-12-25T07:48:55.034Z,5.68
2022-12-25T07:51:21.900Z,12.30
2022-12-25T07:53:48.622Z,8.32
2022-12-25T07:56:17.779Z,7.22
2022-12-25T07:58:45.365Z,7.43
2022-12-25T08:01:17.616Z,8.52
2022-12-25T08:03:52.371Z,14.32
2022-12-25T08:06:20.292Z,12.43
2022-12-25T08:08:47.091Z,12.00
2022-12-25T08:11:14.026Z,7.97
2022-12-25T08:13:41.018Z,5.95
2022-12-25T08:16:09.926Z,5.45
2022-12-25T08:18:38.354Z,4.70
2022-12-25T08:21:15.178Z,5.43
2022-12-25T08:23:43.925Z,4.50
2022-12-25T08:26:14.025Z,6.25
2022-12-25T08:28:41.139Z,5.82
2022-12-25T08:31:20.583Z,5.35
2022-12-25T08:33:48.903Z,3.78
2022-12-25T08:36:17.194Z,3.95
2022-12-25T08:38:44.318Z,3.95
2022-12-25T08:41:12.199Z,4.32
2022-12-25T08:43:39.422Z,3.92
2022-12-25T08:46:06.940Z,4.72
2022-12-25T08:48:33.736Z,4.43
2022-12-25T08:51:01.021Z,5.57
2022-12-25T08:53:27.798Z,8.68
2022-12-25T08:56:04.335Z,13.73
2022-12-25T08:58:31.355Z,12.05
2022-12-25T09:00:58.591Z,7.68
2022-12-25T09:03:25.807Z,7.20
2022-12-25T09:05:54.138Z,6.57
2022-12-25T09:08:21.843Z,6.30
2022-12-25T09:10:49.305Z,5.72
2022-12-25T09:13:16.135Z,7.45
2022-12-25T09:15:42.968Z,6.70
2022-12-25T09:18:09.850Z,7.60
2022-12-25T09:20:36.604Z,8.35
2022-12-25T09:23:06.071Z,14.23
2022-12-25T09:25:35.301Z,15.55
2022-12-25T09:28:02.039Z,13.90
2022-12-25T09:30:29.155Z,12.57
2022-12-25T09:32:56.187Z,12.13
2022-12-25T09:35:22.909Z,11.35
2022-12-25T09:37:49.655Z,8.98
2022-12-25T09:40:21.112Z,11.23
2022-12-25T09:42:48.911Z,7.75
2022-12-25T09:45:29.951Z,6.20
2022-12-25T09:47:57.324Z,6.10
2022-12-25T09:50:40.459Z,12.75
2022-12-25T09:53:18.915Z,8.38
2022-12-25T09:55:56.687Z,6.82
2022-12-25T09:58:28.009Z,8.15
2022-12-25T10:01:12.469Z,5.35
2022-12-25T10:03:57.823Z,5.22
2022-12-25T10:06:49.481Z,4.88
2022-12-25T10:09:25.524Z,4.30
2022-12-25T10:12:29.408Z,4.78
2022-12-25T10:15:23.316Z,2.80
2022-12-25T10:18:17.944Z,1.60
2022-12-25T10:20:53.080Z,1.42
2022-12-25T10:23:30.620Z,1.60
2022-12-25T10:25:57.361Z,1.33
2022-12-25T10:28:34.847Z,1.35
2022-12-25T10:31:16.034Z,1.27
2022-12-25T10:33:42.792Z,1.52
2022-12-25T10:36:09.731Z,1.50
2022-12-25T10:38:39.475Z,1.48
2022-12-25T10:41:13.618Z,1.27
2022-12-25T10:43:45.300Z,1.40
2022-12-25T10:46:14.899Z,1.40
2022-12-25T10:48:46.524Z,1.10
2022-12-25T10:51:13.636Z,1.70
2022-12-25T10:53:43.595Z,1.50
2022-12-25T10:56:19.565Z,1.50
2022-12-25T10:58:46.417Z,1.38
2022-12-25T11:01:13.754Z,1.20
2022-12-25T11:03:44.789Z,1.67
2022-12-25T11:06:26.559Z,1.20
2022-12-25T11:08:59.894Z,1.20
2022-12-25T11:11:29.490Z,1.30
2022-12-25T11:14:01.620Z,1.40
2022-12-25T11:16:39.956Z,1.30
2022-12-25T11:19:26.978Z,1.40
2022-12-25T11:21:56.657Z,1.23
2022-12-25T11:24:27.968Z,1.20
2022-12-25T11:27:01.060Z,1.30
2022-12-25T11:29:39.994Z,1.15
2022-12-25T11:32:16.320Z,1.17
2022-12-25T11:34:46.810Z,1.27
2022-12-25T11:37:20.176Z,1.42
2022-12-25T11:39:47.251Z,1.00
2022-12-25T11:42:28.679Z,1.40
2022-12-25T11:45:17.130Z,1.13
2022-12-25T11:48:05.120Z,1.13
2022-12-25T11:50:36.456Z,1.27
2022-12-25T11:53:07.265Z,1.10
2022-12-25T11:55:47.117Z,1.48
2022-12-25T11:58:26.763Z,1.20
2022-12-25T12:00:57.209Z,1.30
2022-12-25T12:03:37.377Z,1.33
2022-12-25T12:06:33.287Z,1.33
2022-12-25T12:09:34.473Z,1.30
2022-12-25T12:12:25.354Z,0.95
2022-12-25T12:15:00.579Z,1.15
2022-12-25T12:17:27.343Z,1.00
2022-12-25T12:19:54.139Z,1.00
2022-12-25T12:22:27.212Z,1.10
2022-12-25T12:25:05.168Z,1.20
2022-12-25T12:27:40.530Z,1.10
2022-12-25T12:30:24.424Z,1.50
2022-12-25T12:32:59.175Z,1.33
2022-12-25T12:35:30.085Z,1.40
2022-12-25T12:38:03.832Z,1.13
2022-12-25T12:40:33.653Z,1.25
2022-12-25T12:43:01.303Z,0.90
2022-12-25T12:45:36.036Z,1.13
2022-12-25T12:48:14.762Z,1.10
2022-12-25T12:50:42.351Z,1.17
2022-12-25T12:53:24.388Z,1.10
2022-12-25T12:55:52.662Z,1.13
2022-12-25T12:58:34.379Z,1.00
2022-12-25T13:01:34.275Z,1.10
2022-12-25T13:04:26.329Z,1.20
2022-12-25T13:07:05.251Z,1.25
2022-12-25T13:10:10.642Z,1.20
2022-12-25T13:12:38.162Z,1.17
2022-12-25T13:15:12.743Z,1.05
2022-12-25T13:17:44.531Z,1.13
2022-12-25T13:20:28.772Z,0.82
2022-12-25T13:22:55.612Z,1.20
2022-12-25T13:25:23.891Z,1.33
2022-12-25T13:27:57.611Z,1.20
2022-12-25T13:30:25.635Z,1.00
2022-12-25T13:32:54.630Z,1.25
2022-12-25T13:35:23.309Z,1.40
2022-12-25T13:37:50.915Z,1.10
2022-12-25T13:40:24.566Z,1.10
2022-12-25T13:42:56.536Z,1.45
2022-12-25T13:45:26.349Z,1.10
2022-12-25T13:47:55.705Z,1.25
2022-12-25T13:50:28.597Z,1.70
2022-12-25T13:52:57.383Z,1.30
2022-12-25T13:55:26.637Z,1.38
2022-12-25T13:58:05.709Z,1.13
2022-12-25T14:00:35.128Z,1.38
2022-12-25T14:03:03.256Z,1.30
2022-12-25T14:05:37.961Z,1.30
2022-12-25T14:08:18.911Z,1.30
2022-12-25T14:10:49.986Z,1.25
2022-12-25T14:13:19.356Z,1.30
2022-12-25T14:15:54.071Z,1.25
2022-12-25T14:18:23.847Z,1.40
2022-12-25T14:21:25.298Z,1.00
2022-12-25T14:23:52.343Z,1.30
2022-12-25T14:26:22.092Z,1.40
2022-12-25T14:28:50.937Z,1.80
2022-12-25T14:31:18.770Z,1.63
2022-12-25T14:33:46.200Z,1.40
2022-12-25T14:36:13.975Z,1.40
2022-12-25T14:38:42.507Z,1.48
2022-12-25T14:41:33.289Z,1.50
2022-12-25T14:44:38.593Z,1.40
2022-12-25T14:47:11.535Z,1.30
2022-12-25T14:49:38.539Z,1.73
2022-12-25T14:52:22.840Z,1.80
2022-12-25T14:55:17.544Z,1.50
2022-12-25T14:57:49.027Z,1.67
2022-12-25T15:00:21.840Z,1.45
2022-12-25T15:02:51.427Z,2.58
2022-12-25T15:05:27.284Z,2.10
2022-12-25T15:08:10.153Z,1.83
2022-12-25T15:13:26.372Z,1.58
2022-12-25T15:16:29.819Z,1.80
2022-12-25T15:18:57.118Z,2.40
2022-12-25T15:21:28.729Z,1.70
2022-12-25T15:23:57.455Z,2.40
2022-12-25T15:26:25.822Z,2.53
2022-12-25T15:28:52.958Z,2.42
2022-12-25T15:31:25.819Z,2.95
2022-12-25T15:33:54.649Z,2.88
2022-12-25T15:36:22.713Z,2.88
2022-12-25T15:38:49.935Z,2.95
2022-12-25T15:41:38.107Z,2.92
2022-12-25T15:44:06.573Z,3.42
2022-12-25T15:46:34.182Z,3.45
2022-12-25T15:49:01.250Z,3.47
2022-12-25T15:51:28.093Z,3.58
2022-12-25T15:53:55.011Z,3.83
2022-12-25T15:56:23.294Z,4.75
2022-12-25T15:58:50.089Z,4.82
2022-12-25T16:01:18.963Z,4.55
2022-12-25T16:03:46.533Z,4.25
2022-12-25T16:06:16.215Z,5.00
2022-12-25T16:08:43.136Z,4.30
2022-12-25T16:11:10.617Z,4.63
2022-12-25T16:13:37.755Z,3.85
2022-12-25T16:16:05.063Z,3.63
2022-12-25T16:18:31.931Z,2.50
2022-12-25T16:20:59.245Z,5.40
2022-12-25T16:23:26.312Z,4.80
2022-12-25T16:25:53.056Z,4.15
2022-12-25T16:28:19.908Z,4.78
2022-12-25T16:30:46.759Z,4.03
2022-12-25T16:33:13.589Z,3.95
2022-12-25T16:35:40.374Z,4.00
2022-12-25T16:38:07.546Z,3.58
2022-12-25T16:40:34.368Z,3.67
2022-12-25T16:43:01.156Z,3.60
2022-12-25T16:45:28.230Z,2.90
2022-12-25T16:47:57.015Z,3.20
2022-12-25T16:50:23.852Z,3.15
2022-12-25T16:52:50.660Z,3.40
2022-12-25T16:55:18.591Z,3.08
2022-12-25T16:57:50.901Z,3.25
2022-12-25T17:00:18.617Z,3.10
2022-12-25T17:02:45.729Z,3.90
2022-12-25T17:05:12.790Z,4.40
2022-12-25T17:07:39.615Z,4.65
2022-12-25T17:10:07.891Z,10.27
2022-12-25T17:12:34.675Z,4.78
2022-12-25T17:15:01.431Z,4.95
2022-12-25T17:17:28.205Z,5.90
2022-12-25T17:19:54.975Z,5.72
2022-12-25T17:22:25.418Z,3.78
2022-12-25T17:24:52.225Z,4.80
2022-12-25T17:27:18.993Z,2.80
2022-12-25T17:29:48.255Z,2.20
2022-12-25T17:32:15.116Z,4.00
2022-12-25T17:34:41.870Z,9.15
2022-12-25T17:37:08.768Z,8.63
2022-12-25T17:39:35.533Z,15.98
2022-12-25T17:42:02.398Z,5.55
2022-12-25T17:44:29.336Z,7.72
2022-12-25T17:46:56.106Z,10.63
2022-12-25T17:49:23.359Z,10.50
2022-12-25T17:51:50.467Z,8.85
2022-12-25T17:54:17.174Z,10.50
2022-12-25T17:56:43.904Z,3.00
2022-12-25T17:59:18.079Z,3.35
2022-12-25T18:01:46.823Z,5.22
2022-12-25T18:04:14.231Z,3.33
2022-12-25T18:06:41.365Z,2.88
2022-12-25T18:09:09.677Z,2.33
2022-12-25T18:11:39.673Z,4.35
2022-12-25T18:14:08.352Z,5.13
2022-12-25T18:16:37.856Z,5.13
2022-12-25T18:19:05.308Z,5.50
2022-12-25T18:21:32.396Z,6.13
2022-12-25T18:23:59.464Z,5.18
2022-12-25T18:26:28.608Z,5.32
2022-12-25T18:28:55.820Z,4.80
2022-12-25T18:31:25.116Z,4.20
2022-12-25T18:33:52.367Z,3.00
2022-12-25T18:36:22.179Z,3.00
2022-12-25T18:38:50.903Z,2.92
2022-12-25T18:41:18.601Z,3.90
2022-12-25T18:43:52.609Z,3.80
2022-12-25T18:46:27.335Z,3.50
2022-12-25T18:48:55.760Z,3.22
2022-12-25T18:51:22.554Z,3.20
2022-12-25T18:53:49.493Z,3.90
2022-12-25T18:56:17.701Z,2.58
2022-12-25T18:58:46.288Z,4.40
2022-12-25T19:01:23.575Z,3.90
2022-12-25T19:03:51.693Z,10.48
2022-12-25T19:06:18.437Z,32.63
2022-12-25T19:08:45.425Z,7.25
2022-12-25T19:11:12.307Z,9.63
2022-12-25T19:13:39.112Z,9.48
2022-12-25T19:16:06.116Z,10.02
2022-12-25T19:18:32.931Z,11.35
2022-12-25T19:21:05.023Z,16.52
2022-12-25T19:23:31.887Z,5.40
2022-12-25T19:25:58.699Z,3.45
2022-12-25T19:28:25.506Z,5.28
2022-12-25T19:30:53.987Z,11.18
2022-12-25T19:33:21.838Z,7.07
2022-12-25T19:35:48.968Z,5.13
2022-12-25T19:38:16.284Z,3.05
2022-12-25T19:41:00.057Z,3.75
2022-12-25T19:43:33.421Z,3.42
2022-12-25T19:46:01.642Z,4.57
2022-12-25T19:48:29.427Z,4.13
2022-12-25T19:50:56.207Z,5.70
2022-12-25T19:53:23.742Z,5.75
2022-12-25T19:55:52.567Z,4.05
2022-12-25T19:58:23.446Z,3.53
2022-12-25T20:01:05.956Z,4.40
2022-12-25T20:03:45.350Z,8.30
2022-12-25T20:06:24.634Z,11.38
2022-12-25T20:08:57.471Z,4.30
2022-12-25T20:11:26.629Z,4.25
2022-12-25T20:13:54.400Z,6.65
2022-12-25T20:16:21.380Z,4.20
2022-12-25T20:18:48.283Z,3.88
2022-12-25T20:21:18.186Z,4.07
2022-12-25T20:23:46.879Z,4.78
2022-12-25T20:26:14.629Z,3.88
2022-12-25T20:28:42.316Z,4.22
2022-12-25T20:31:16.938Z,5.00
2022-12-25T20:33:44.567Z,3.45
2022-12-25T20:36:12.713Z,3.70
2022-12-25T20:38:39.879Z,3.13
2022-12-25T20:41:29.491Z,3.63
2022-12-25T20:43:56.989Z,3.65
2022-12-25T20:46:25.102Z,4.88
2022-12-25T20:48:52.799Z,5.68
2022-12-25T20:51:22.433Z,5.20
2022-12-25T20:53:49.792Z,4.78
2022-12-25T20:56:18.516Z,5.07
2022-12-25T20:58:45.592Z,4.45
2022-12-25T21:01:17.567Z,3.78
2022-12-25T21:03:44.752Z,3.17
2022-12-25T21:06:12.438Z,3.25
2022-12-25T21:08:40.998Z,3.58
2022-12-25T21:11:08.953Z,3.10
2022-12-25T21:13:38.531Z,2.80
2022-12-25T21:16:07.440Z,2.80
2022-12-25T21:18:34.598Z,3.42
2022-12-25T21:21:05.453Z,3.13
2022-12-25T21:23:33.181Z,3.00
2022-12-25T21:26:00.045Z,2.80
2022-12-25T21:28:27.117Z,2.90
2022-12-25T21:30:53.920Z,2.50
2022-12-25T21:33:39.302Z,2.72
2022-12-25T21:36:11.211Z,3.30
2022-12-25T21:38:39.136Z,3.08
2022-12-25T21:41:08.725Z,2.75
2022-12-25T21:43:37.523Z,3.63
2022-12-25T21:46:09.794Z,3.35
2022-12-25T21:48:37.432Z,3.05
2022-12-25T21:51:23.731Z,3.75
2022-12-25T21:53:50.705Z,3.22
2022-12-25T21:56:18.181Z,3.35
2022-12-25T21:58:44.970Z,2.97
2022-12-25T22:01:11.936Z,2.90
2022-12-25T22:03:38.795Z,2.63
2022-12-25T22:06:24.197Z,3.80
2022-12-25T22:08:50.978Z,2.65
2022-12-25T22:11:36.303Z,3.65
2022-12-25T22:14:51.936Z,3.15
2022-12-25T22:17:27.820Z,3.35
2022-12-25T22:19:55.320Z,3.42
2022-12-25T22:22:25.251Z,3.30
2022-12-25T22:24:54.664Z,2.92
2022-12-25T22:27:21.889Z,3.42
2022-12-25T22:29:48.879Z,3.55
2022-12-25T22:32:16.418Z,3.33
2022-12-25T22:34:43.651Z,4.00
2022-12-25T22:37:14.924Z,3.00
2022-12-25T22:39:41.712Z,3.28
2022-12-25T22:42:08.528Z,3.65
2022-12-25T22:44:35.342Z,3.60
2022-12-25T22:47:02.109Z,3.63
2022-12-25T22:49:29.172Z,4.45
2022-12-25T22:51:56.372Z,3.83
2022-12-25T22:54:24.491Z,3.75
2022-12-25T22:56:52.604Z,3.78
2022-12-25T22:59:22.228Z,3.72
2022-12-25T23:01:49.822Z,3.88
2022-12-25T23:04:17.030Z,3.88
2022-12-25T23:06:44.205Z,3.67
2022-12-25T23:09:18.895Z,4.18
2022-12-25T23:11:49.052Z,4.30
2022-12-25T23:14:34.559Z,4.10
2022-12-25T23:17:01.341Z,4.22
2022-12-25T23:19:46.677Z,3.97
2022-12-25T23:22:32.075Z,4.18
2022-12-25T23:25:17.736Z,4.70
2022-12-25T23:27:45.644Z,4.00
2022-12-25T23:30:16.169Z,4.07
2022-12-25T23:32:43.858Z,4.22
2022-12-25T23:35:11.829Z,4.60
2022-12-25T23:37:38.632Z,4.72
2022-12-25T23:40:06.064Z,4.60
2022-12-25T23:42:32.851Z,4.80
2022-12-25T23:44:59.586Z,4.78
2022-12-25T23:47:26.412Z,4.13
2022-12-25T23:49:53.186Z,5.00
2022-12-25T23:52:19.955Z,4.75
2022-12-25T23:54:46.746Z,4.20
2022-12-25T23:57:17.269Z,4.60
2022-12-25T23:59:44.162Z,4.72
